Time;durP1;ratioP1;P1;durP2;ratioP2;P2;SDS_P1;SDS_P2;PMS_P1;PMS_P2;Temp;Humidity;BMP_temperature;BMP_pressure;BME280_temperature;BME280_humidity;BME280_pressure;Samples;Min_cycle;Max_cycle;Signal;HPM_P1;HPM_P2
2021/08/29 00:07:15;;;;;;;4.73;1.20;;;19.80;77.00;;;;;;20987101;28;20021;-56
2021/08/29 00:17:15;;;;;;;2.58;1.55;;;19.80;76.90;;;;;;20972950;28;20550;-58
2021/08/29 00:27:16;;;;;;;4.35;1.17;;;19.80;76.70;;;;;;20987094;28;20032;-57
2021/08/29 00:37:16;;;;;;;4.63;1.20;;;19.70;76.80;;;;;;20986131;28;20021;-58
2021/08/29 00:47:17;;;;;;;2.97;1.35;;;19.70;76.80;;;;;;20985120;28;20017;-57
2021/08/29 00:57:18;;;;;;;5.90;1.27;;;19.70;76.80;;;;;;20985030;28;20054;-57
2021/08/29 01:07:23;;;;;;;4.70;1.27;;;19.70;76.70;;;;;;20984353;28;20460;-56
2021/08/29 01:17:28;;;;;;;4.70;1.40;;;19.70;76.60;;;;;;20983997;28;20028;-57
2021/08/29 01:27:52;;;;;;;4.35;1.58;;;19.70;76.50;;;;;;20961165;28;20025;-60
2021/08/29 01:37:53;;;;;;;4.18;2.38;;;19.70;76.50;;;;;;20979018;28;20499;-57
2021/08/29 01:47:56;;;;;;;6.22;1.80;;;19.70;76.30;;;;;;20982961;28;20024;-58
2021/08/29 01:57:56;;;;;;;6.85;1.60;;;19.70;76.40;;;;;;20982854;28;20024;-56
2021/08/29 02:07:59;;;;;;;2.83;1.48;;;19.70;76.40;;;;;;20960290;28;20029;-57
2021/08/29 02:18:05;;;;;;;3.10;1.30;;;19.70;76.30;;;;;;20997129;28;20040;-57
2021/08/29 02:28:06;;;;;;;3.28;1.95;;;19.60;76.20;;;;;;20981710;28;20641;-57
2021/08/29 02:38:07;;;;;;;3.15;1.48;;;19.60;76.20;;;;;;20980848;28;20090;-57
2021/08/29 02:48:08;;;;;;;4.50;2.00;;;19.60;76.30;;;;;;20981091;28;20024;-56
2021/08/29 02:58:09;;;;;;;4.28;1.73;;;19.60;76.30;;;;;;20994020;28;20402;-57
2021/08/29 03:08:10;;;;;;;3.35;1.40;;;19.60;76.10;;;;;;20992125;28;20060;-57
2021/08/29 03:18:11;;;;;;;2.93;1.87;;;19.60;76.00;;;;;;20992081;28;20093;-57
2021/08/29 03:28:12;;;;;;;4.53;1.88;;;19.60;76.10;;;;;;20963934;28;20463;-57
2021/08/29 03:38:17;;;;;;;2.60;1.60;;;19.60;75.90;;;;;;20990923;28;20035;-58
2021/08/29 03:48:17;;;;;;;4.50;1.98;;;19.60;76.00;;;;;;20990026;28;20031;-57
2021/08/29 03:58:18;;;;;;;3.72;1.90;;;19.60;75.80;;;;;;20989415;28;20036;-58
2021/08/29 04:08:25;;;;;;;3.17;1.60;;;19.60;75.80;;;;;;20988747;28;20024;-56
2021/08/29 04:18:25;;;;;;;3.25;1.77;;;19.60;75.70;;;;;;20987213;28;20408;-55
2021/08/29 04:28:26;;;;;;;2.30;1.40;;;19.60;75.80;;;;;;20999554;22;20055;-56
2021/08/29 04:38:27;;;;;;;2.72;1.70;;;19.60;75.80;;;;;;20986794;28;20478;-56
2021/08/29 04:48:28;;;;;;;2.80;1.67;;;19.50;75.70;;;;;;20987150;28;20021;-56
2021/08/29 04:58:29;;;;;;;3.85;1.60;;;19.50;75.70;;;;;;20986821;28;20020;-58
2021/08/29 05:08:30;;;;;;;3.60;1.70;;;19.50;75.60;;;;;;20984791;28;20482;-57
2021/08/29 05:18:31;;;;;;;4.03;2.30;;;19.50;75.40;;;;;;20984562;28;20044;-58
2021/08/29 05:28:31;;;;;;;3.58;1.63;;;19.50;75.70;;;;;;20984254;28;20036;-54
2021/08/29 05:38:32;;;;;;;2.35;1.38;;;19.50;75.70;;;;;;20982930;28;20050;-57
2021/08/29 05:48:33;;;;;;;2.97;1.67;;;19.50;75.50;;;;;;20985346;28;20021;-57
2021/08/29 05:58:34;;;;;;;2.45;1.60;;;19.60;75.40;;;;;;20998772;28;20031;-57
2021/08/29 06:08:34;;;;;;;8.32;1.83;;;19.50;75.40;;;;;;20998085;28;20052;-56
2021/08/29 06:18:35;;;;;;;5.07;1.73;;;19.50;75.30;;;;;;20997180;28;20028;-57
2021/08/29 06:28:35;;;;;;;6.05;1.63;;;19.50;75.20;;;;;;20996609;28;20540;-52
2021/08/29 06:38:36;;;;;;;2.20;1.30;;;19.50;75.20;;;;;;20995895;28;20028;-50
2021/08/29 06:48:36;;;;;;;3.63;1.02;;;19.50;75.10;;;;;;20995122;28;20112;-53
2021/08/29 06:58:37;;;;;;;6.57;1.38;;;19.50;75.10;;;;;;20993659;28;20029;-52
2021/08/29 07:08:37;;;;;;;4.60;2.05;;;19.50;75.10;;;;;;20979662;28;20097;-49
2021/08/29 07:18:38;;;;;;;5.70;1.27;;;19.50;74.80;;;;;;20992832;28;20032;-51
2021/08/29 07:28:40;;;;;;;5.07;1.65;;;19.50;73.90;;;;;;20977736;28;20051;-50
2021/08/29 07:38:41;;;;;;;4.78;1.65;;;19.60;74.10;;;;;;20991634;28;20036;-48
2021/08/29 07:48:42;;;;;;;4.80;1.85;;;19.50;75.00;;;;;;20991245;28;20021;-52
2021/08/29 07:58:42;;;;;;;2.70;0.97;;;19.60;74.80;;;;;;20988279;28;20040;-56
2021/08/29 08:08:43;;;;;;;8.18;1.70;;;19.60;74.60;;;;;;20985884;28;20107;-52
2021/08/29 08:18:43;;;;;;;8.18;2.17;;;19.60;74.70;;;;;;20978255;28;20123;-52
2021/08/29 08:28:44;;;;;;;6.20;1.33;;;19.60;75.20;;;;;;20934159;28;20040;-51
2021/08/29 08:38:44;;;;;;;9.02;1.60;;;19.60;75.20;;;;;;20984663;28;20063;-52
2021/08/29 08:48:49;;;;;;;3.10;1.20;;;19.60;74.50;;;;;;20980255;28;20029;-51
2021/08/29 08:58:51;;;;;;;8.13;1.75;;;19.60;73.90;;;;;;20981653;28;20384;-54
2021/08/29 09:08:52;;;;;;;12.10;3.47;;;19.70;74.10;;;;;;20970982;28;20040;-52
2021/08/29 09:18:55;;;;;;;8.52;3.53;;;19.40;72.70;;;;;;20927556;28;20036;-52
2021/08/29 09:28:58;;;;;;;12.27;2.70;;;18.40;76.10;;;;;;20931333;28;20033;-52
2021/08/29 09:39:19;;;;;;;9.35;1.60;;;18.70;75.50;;;;;;20983646;28;20064;-48
2021/08/29 09:49:24;;;;;;;10.10;2.00;;;19.10;74.70;;;;;;20977269;28;20036;-52
2021/08/29 09:59:37;;;;;;;4.57;1.10;;;19.30;74.20;;;;;;20982129;28;20078;-50
2021/08/29 10:09:37;;;;;;;7.95;1.17;;;19.40;74.80;;;;;;20983928;28;20054;-54
2021/08/29 10:19:39;;;;;;;10.88;1.75;;;19.40;74.60;;;;;;20956673;28;20029;-54
2021/08/29 10:29:46;;;;;;;11.25;2.17;;;19.50;74.30;;;;;;20972771;22;20041;-63
2021/08/29 10:39:49;;;;;;;7.22;1.95;;;19.60;73.80;;;;;;20912812;28;20107;-62
2021/08/29 10:49:50;;;;;;;17.77;2.60;;;19.80;74.00;;;;;;20912514;28;20191;-64
2021/08/29 11:00:14;;;;;;;18.00;2.22;;;20.40;73.70;;;;;;20885839;28;20061;-64
2021/08/29 11:10:39;;;;;;;23.98;3.67;;;21.00;72.30;;;;;;20909086;28;20031;-62
2021/08/29 11:20:56;;;;;;;16.45;3.38;;;21.10;72.30;;;;;;20910196;28;20522;-62
2021/08/29 11:30:57;;;;;;;16.27;2.97;;;21.10;72.50;;;;;;20908998;28;20045;-62
2021/08/29 11:41:16;;;;;;;14.38;2.53;;;21.10;72.50;;;;;;20902773;28;20093;-60
2021/08/29 11:51:28;;;;;;;20.73;2.40;;;21.10;72.40;;;;;;20907942;28;20025;-62
2021/08/29 12:01:31;;;;;;;13.07;2.13;;;21.10;72.60;;;;;;20892135;28;20483;-62
2021/08/29 12:11:34;;;;;;;18.50;2.72;;;21.10;72.70;;;;;;20906207;28;20032;-61
2021/08/29 12:21:35;;;;;;;10.55;2.15;;;21.00;72.70;;;;;;20904829;28;20117;-62
2021/08/29 12:31:40;;;;;;;9.82;1.90;;;21.00;72.80;;;;;;20904824;28;20071;-61
2021/08/29 12:41:43;;;;;;;12.55;2.55;;;21.00;72.60;;;;;;20903498;28;20098;-61
2021/08/29 12:51:44;;;;;;;10.63;1.55;;;20.90;72.80;;;;;;20902542;28;20017;-59
2021/08/29 13:01:52;;;;;;;17.38;2.95;;;20.90;72.50;;;;;;20899274;28;20036;-60
2021/08/29 13:11:53;;;;;;;14.95;3.72;;;20.90;72.50;;;;;;20820817;28;20539;-58
2021/08/29 13:21:58;;;;;;;17.30;4.13;;;20.80;72.70;;;;;;20827754;28;20029;-60
2021/08/29 13:31:58;;;;;;;19.92;3.47;;;20.80;72.60;;;;;;20898327;28;20033;-61
2021/08/29 13:42:14;;;;;;;16.83;3.90;;;20.90;72.60;;;;;;20895626;28;20071;-60
2021/08/29 13:52:23;;;;;;;25.45;3.85;;;20.80;72.60;;;;;;20897811;28;20037;-59
2021/08/29 14:02:23;;;;;;;23.15;4.00;;;20.70;72.80;;;;;;20903843;28;20029;-61
2021/08/29 14:12:24;;;;;;;17.10;4.80;;;20.80;73.10;;;;;;20913949;28;20551;-62
2021/08/29 14:22:24;;;;;;;21.63;3.83;;;20.80;72.70;;;;;;20909092;28;20053;-62
2021/08/29 15:10:33;;;;;;;23.48;3.65;;;20.80;71.10;;;;;;20899312;27;20163;-69
2021/08/29 15:20:35;;;;;;;14.87;4.10;;;20.50;71.40;;;;;;20833354;28;20061;-71
2021/08/29 15:30:36;;;;;;;17.48;3.80;;;20.50;71.70;;;;;;20890787;28;20045;-69
2021/08/29 15:40:37;;;;;;;15.85;3.47;;;20.50;71.70;;;;;;20894394;28;20028;-70
2021/08/29 15:50:41;;;;;;;15.57;4.30;;;20.60;71.60;;;;;;20881408;28;20034;-69
2021/08/29 16:00:43;;;;;;;13.65;5.00;;;20.60;71.70;;;;;;20828816;28;20028;-69
2021/08/29 16:10:46;;;;;;;11.85;3.65;;;20.50;71.40;;;;;;20833136;28;20041;-70
2021/08/29 16:20:48;;;;;;;11.15;2.85;;;20.50;71.50;;;;;;20766067;28;20022;-69
2021/08/29 16:30:48;;;;;;;7.85;2.70;;;20.50;71.30;;;;;;20834551;23;20137;-68
2021/08/29 16:40:49;;;;;;;8.02;2.88;;;20.50;71.20;;;;;;20709177;28;20120;-68
2021/08/29 16:50:49;;;;;;;8.80;2.47;;;20.50;71.60;;;;;;20804803;28;20523;-68
2021/08/29 17:00:52;;;;;;;11.50;3.17;;;20.50;70.90;;;;;;20823776;28;20480;-68
2021/08/29 17:10:52;;;;;;;9.00;2.75;;;20.50;71.00;;;;;;20824168;28;20041;-68
2021/08/29 17:20:59;;;;;;;7.40;2.17;;;20.50;71.00;;;;;;20826550;28;20036;-68
2021/08/29 17:31:00;;;;;;;9.98;2.47;;;20.50;70.90;;;;;;20810069;28;20479;-68
2021/08/29 17:41:01;;;;;;;9.75;2.17;;;20.40;70.80;;;;;;20824391;28;20117;-68
2021/08/29 17:51:02;;;;;;;6.38;2.97;;;20.40;70.70;;;;;;20823389;28;20036;-68
2021/08/29 18:01:04;;;;;;;6.68;2.38;;;20.40;70.60;;;;;;20822455;28;20048;-68
2021/08/29 18:11:06;;;;;;;6.13;2.00;;;20.40;70.50;;;;;;20821670;28;20526;-68
2021/08/29 18:21:07;;;;;;;9.85;3.33;;;20.40;70.40;;;;;;20821156;28;20048;-68
2021/08/29 18:31:08;;;;;;;7.15;2.00;;;20.30;70.30;;;;;;20820307;28;20037;-68
2021/08/29 18:41:08;;;;;;;3.65;1.85;;;20.30;70.10;;;;;;20819722;28;20480;-68
2021/08/29 18:51:09;;;;;;;4.20;2.38;;;20.40;70.30;;;;;;20819757;28;20399;-68
2021/08/29 19:01:10;;;;;;;7.97;1.70;;;20.30;70.20;;;;;;20819090;28;20026;-68
2021/08/29 19:11:16;;;;;;;4.20;2.13;;;20.30;70.10;;;;;;20819778;28;20033;-68
2021/08/29 19:21:21;;;;;;;5.82;1.67;;;20.30;70.10;;;;;;20818395;28;20479;-67
2021/08/29 19:31:22;;;;;;;5.97;2.42;;;20.30;70.20;;;;;;20817765;28;20033;-67
2021/08/29 19:41:23;;;;;;;5.43;2.00;;;20.30;70.20;;;;;;20817391;28;20089;-68
2021/08/29 19:51:23;;;;;;;4.50;2.23;;;20.30;70.10;;;;;;20821779;28;20476;-67
2021/08/29 20:01:24;;;;;;;17.23;3.78;;;20.40;69.80;;;;;;20829130;28;20034;-67
2021/08/29 20:11:24;;;;;;;24.75;4.78;;;20.50;70.00;;;;;;20830909;28;20037;-70
2021/08/29 20:21:25;;;;;;;17.55;3.92;;;20.80;69.60;;;;;;20829193;28;20042;-70
2021/08/29 20:31:25;;;;;;;34.63;4.97;;;20.60;70.10;;;;;;20771759;28;20045;-70
2021/08/29 20:41:26;;;;;;;15.70;3.55;;;20.60;70.10;;;;;;20794064;28;20033;-69
2021/08/29 20:51:26;;;;;;;22.00;5.13;;;20.50;70.60;;;;;;20794686;28;20067;-70
2021/08/29 21:01:28;;;;;;;21.42;4.65;;;20.40;70.20;;;;;;20803117;28;20428;-70
